Time;durP1;ratioP1;P1;durP2;ratioP2;P2;SDS_P1;SDS_P2;PMS_P1;PMS_P2;Temp;Humidity;BMP_temperature;BMP_pressure;BME280_temperature;BME280_humidity;BME280_pressure;Samples;Min_cycle;Max_cycle;Signal;HPM_P1;HPM_P2
2024/02/15 00:00:22;;;;;;;37.30;28.70;;;7.00;97.50;;;;;;5051266;28;20210;-59
2024/02/15 00:02:49;;;;;;;32.53;26.57;;;7.00;97.50;;;;;;5053186;28;20222;-59
2024/02/15 00:05:16;;;;;;;36.57;28.47;;;7.00;97.50;;;;;;5054091;28;20210;-59
2024/02/15 00:07:43;;;;;;;40.83;28.27;;;7.00;97.50;;;;;;5053625;28;20279;-59
2024/02/15 00:10:11;;;;;;;44.20;29.67;;;7.00;97.60;;;;;;5052222;28;20197;-59
2024/02/15 00:12:38;;;;;;;50.03;31.10;;;7.00;97.60;;;;;;5050406;28;20547;-59
2024/02/15 00:15:05;;;;;;;49.30;32.23;;;7.00;97.80;;;;;;5053266;28;20192;-59
2024/02/15 00:17:35;;;;;;;39.97;28.93;;;7.10;97.90;;;;;;5052627;28;20261;-59
2024/02/15 00:20:09;;;;;;;39.77;28.10;;;7.10;98.00;;;;;;5054587;28;20636;-59
2024/02/15 00:22:37;;;;;;;38.80;28.27;;;7.10;98.00;;;;;;5048115;28;20214;-59
2024/02/15 00:25:05;;;;;;;44.90;30.20;;;7.20;98.00;;;;;;5051892;28;20629;-59
2024/02/15 00:27:35;;;;;;;48.63;29.63;;;7.20;98.00;;;;;;5049809;28;20259;-59
2024/02/15 00:30:07;;;;;;;41.67;29.33;;;7.20;98.10;;;;;;5047823;28;20222;-59
2024/02/15 00:32:36;;;;;;;39.57;27.40;;;7.20;98.10;;;;;;5052231;28;20231;-59
2024/02/15 00:35:09;;;;;;;42.40;28.27;;;7.10;98.10;;;;;;5050121;28;20209;-59
2024/02/15 00:37:37;;;;;;;39.30;26.30;;;7.20;98.20;;;;;;5050764;28;20545;-59
2024/02/15 00:40:05;;;;;;;37.73;25.67;;;7.10;98.10;;;;;;5051140;28;20234;-59
2024/02/15 00:42:33;;;;;;;40.17;24.50;;;7.20;98.20;;;;;;5048883;28;20615;-59
2024/02/15 00:45:00;;;;;;;39.53;25.37;;;7.10;98.10;;;;;;5053819;28;20226;-59
2024/02/15 00:47:28;;;;;;;41.23;25.67;;;7.10;98.10;;;;;;5050227;28;20207;-59
2024/02/15 00:49:55;;;;;;;40.77;25.60;;;7.10;98.20;;;;;;5051203;28;20225;-59
2024/02/15 00:52:23;;;;;;;35.03;23.77;;;7.10;98.10;;;;;;5051435;28;20260;-59
2024/02/15 00:54:50;;;;;;;40.57;24.57;;;7.10;98.10;;;;;;5051226;28;20199;-59
2024/02/15 00:57:17;;;;;;;38.27;23.97;;;7.10;98.10;;;;;;5052226;28;20206;-59
2024/02/15 00:59:44;;;;;;;35.47;22.63;;;7.10;98.10;;;;;;5050447;28;20221;-59
2024/02/15 01:02:12;;;;;;;39.53;25.13;;;7.00;97.90;;;;;;5052394;28;20215;-59
2024/02/15 01:04:39;;;;;;;35.93;23.93;;;7.00;97.90;;;;;;5054666;28;20194;-59
2024/02/15 01:07:07;;;;;;;38.80;23.57;;;7.00;97.90;;;;;;5050020;28;20199;-59
2024/02/15 01:09:35;;;;;;;46.07;25.57;;;7.00;97.90;;;;;;5052975;28;20210;-59
2024/02/15 01:12:05;;;;;;;34.43;24.43;;;7.00;97.90;;;;;;5048073;28;20726;-59
2024/02/15 01:14:32;;;;;;;37.03;22.53;;;6.90;97.90;;;;;;5052474;28;20524;-59
2024/02/15 01:16:59;;;;;;;34.03;23.13;;;6.90;98.00;;;;;;5044502;28;20199;-59
2024/02/15 01:19:26;;;;;;;31.70;22.37;;;6.90;98.20;;;;;;5048029;28;20213;-59
2024/02/15 01:21:53;;;;;;;39.13;21.67;;;6.90;98.00;;;;;;5048509;28;20214;-59
2024/02/15 01:24:20;;;;;;;31.77;21.07;;;6.90;98.30;;;;;;5048068;28;20201;-59
2024/02/15 01:26:49;;;;;;;29.47;20.67;;;6.80;98.00;;;;;;5051223;28;20217;-58
2024/02/15 01:29:16;;;;;;;35.07;21.93;;;6.80;97.90;;;;;;5046680;28;20534;-58
2024/02/15 01:31:43;;;;;;;27.17;20.07;;;6.80;97.90;;;;;;5051111;28;20213;-58
2024/02/15 01:34:10;;;;;;;26.30;20.07;;;6.70;97.80;;;;;;5052185;28;20528;-58
2024/02/15 01:36:38;;;;;;;27.63;19.93;;;6.70;97.90;;;;;;5054429;28;20491;-58
2024/02/15 01:39:05;;;;;;;31.60;22.53;;;6.70;97.90;;;;;;5055411;28;20213;-58
2024/02/15 01:41:32;;;;;;;32.43;22.17;;;6.70;97.90;;;;;;5054185;28;20206;-58
2024/02/15 01:44:00;;;;;;;36.70;21.97;;;6.60;97.90;;;;;;5053509;28;20194;-58
2024/02/15 01:46:29;;;;;;;35.17;21.77;;;6.70;97.90;;;;;;5056297;28;20199;-59
2024/02/15 01:48:56;;;;;;;30.67;20.00;;;6.60;97.80;;;;;;5056235;28;20218;-58
2024/02/15 01:51:25;;;;;;;28.77;20.07;;;6.60;97.80;;;;;;5056523;28;20202;-58
2024/02/15 01:53:54;;;;;;;33.40;20.90;;;6.60;97.90;;;;;;5048469;28;20226;-58
2024/02/15 01:56:25;;;;;;;35.00;21.20;;;6.50;97.90;;;;;;5050801;28;20206;-58
2024/02/15 01:58:52;;;;;;;28.93;20.70;;;6.50;98.00;;;;;;5053727;28;20273;-58
2024/02/15 02:01:21;;;;;;;29.00;19.30;;;6.50;98.00;;;;;;5053279;28;20214;-58
2024/02/15 02:03:48;;;;;;;25.67;19.67;;;6.40;98.10;;;;;;5053874;28;20199;-59
2024/02/15 02:06:16;;;;;;;22.93;16.27;;;6.50;98.10;;;;;;5050756;28;20289;-58
2024/02/15 02:08:43;;;;;;;25.93;18.73;;;6.50;98.10;;;;;;5052786;28;20270;-58
2024/02/15 02:11:10;;;;;;;28.83;19.13;;;6.50;98.00;;;;;;5053202;28;20191;-58
2024/02/15 02:13:37;;;;;;;33.90;21.30;;;6.40;97.70;;;;;;5054808;28;20260;-59
2024/02/15 02:16:23;;;;;;;30.93;21.47;;;6.30;97.60;;;;;;5055845;28;20209;-58
2024/02/15 02:18:50;;;;;;;33.67;21.87;;;6.30;97.50;;;;;;5052484;28;20209;-58
2024/02/15 02:21:18;;;;;;;29.77;20.83;;;6.20;97.40;;;;;;5052650;28;20216;-58
2024/02/15 02:23:52;;;;;;;26.43;19.33;;;6.20;97.60;;;;;;5055040;28;20264;-59
2024/02/15 02:26:23;;;;;;;27.33;19.00;;;6.10;97.70;;;;;;5052479;28;20199;-58
2024/02/15 02:28:54;;;;;;;29.77;17.93;;;6.10;97.80;;;;;;5054507;28;20206;-58
2024/02/15 02:31:24;;;;;;;27.03;17.70;;;6.10;97.90;;;;;;5054563;28;20554;-59
2024/02/15 02:33:52;;;;;;;27.83;18.97;;;6.10;97.90;;;;;;5054643;28;20230;-59
2024/02/15 02:36:20;;;;;;;26.57;20.00;;;6.00;97.70;;;;;;5055365;28;20228;-58
2024/02/15 02:38:50;;;;;;;30.10;19.93;;;5.90;97.50;;;;;;5055905;28;20624;-58
2024/02/15 02:41:19;;;;;;;29.53;20.07;;;5.90;97.50;;;;;;5055047;28;20275;-58
2024/02/15 02:43:46;;;;;;;26.20;19.13;;;5.80;97.50;;;;;;5050998;28;20199;-58
2024/02/15 02:46:13;;;;;;;27.47;20.20;;;5.80;97.60;;;;;;5052618;28;20194;-58
2024/02/15 02:48:41;;;;;;;19.83;15.77;;;5.80;97.60;;;;;;5052202;28;20222;-58
2024/02/15 02:51:08;;;;;;;23.93;17.00;;;5.70;97.60;;;;;;5051926;28;20205;-58
2024/02/15 02:53:36;;;;;;;23.73;16.97;;;5.70;97.50;;;;;;5055844;28;20307;-59
2024/02/15 02:56:03;;;;;;;22.40;15.47;;;5.60;97.40;;;;;;5050081;28;20628;-58
2024/02/15 02:58:31;;;;;;;19.90;14.93;;;5.60;97.40;;;;;;5053891;28;20209;-59
2024/02/15 03:01:00;;;;;;;26.20;18.47;;;5.60;97.40;;;;;;5053029;28;20464;-59
2024/02/15 03:03:27;;;;;;;23.20;16.77;;;5.50;97.40;;;;;;5056360;28;20261;-58
2024/02/15 03:05:55;;;;;;;25.87;17.53;;;5.50;97.30;;;;;;5052525;28;20212;-58
2024/02/15 03:08:23;;;;;;;27.50;17.23;;;5.50;97.30;;;;;;5052458;28;20207;-58
2024/02/15 03:10:51;;;;;;;30.27;20.70;;;5.50;97.40;;;;;;5053309;28;20619;-59
2024/02/15 03:13:18;;;;;;;27.17;19.90;;;5.50;97.50;;;;;;5052608;28;20283;-58
2024/02/15 03:15:48;;;;;;;31.67;20.27;;;5.50;97.50;;;;;;5053468;28;20203;-59
2024/02/15 03:18:16;;;;;;;23.83;16.90;;;5.50;97.60;;;;;;5054825;28;20197;-58
2024/02/15 03:20:43;;;;;;;30.27;19.13;;;5.60;97.70;;;;;;5053897;28;20585;-58
2024/02/15 03:23:11;;;;;;;28.30;18.67;;;5.50;97.70;;;;;;5054605;28;20201;-58
2024/02/15 03:25:38;;;;;;;29.23;18.73;;;5.50;97.70;;;;;;5055414;28;20277;-58
2024/02/15 03:28:06;;;;;;;24.87;17.20;;;5.60;97.80;;;;;;5052393;28;20194;-59
2024/02/15 03:30:35;;;;;;;24.17;17.93;;;5.50;97.70;;;;;;5051695;28;20243;-58
2024/02/15 03:33:05;;;;;;;25.27;16.73;;;5.50;97.60;;;;;;5050405;28;20631;-58
2024/02/15 03:35:34;;;;;;;25.83;17.77;;;5.50;97.60;;;;;;5052402;28;20850;-58
2024/02/15 03:38:01;;;;;;;22.90;16.93;;;5.50;97.60;;;;;;5049668;28;20248;-58
2024/02/15 03:40:30;;;;;;;26.10;17.57;;;5.50;97.60;;;;;;5053211;28;20210;-58
2024/02/15 03:42:58;;;;;;;23.17;16.50;;;5.40;97.60;;;;;;5052159;28;20202;-58
2024/02/15 03:45:25;;;;;;;23.17;15.70;;;5.40;97.60;;;;;;5048758;28;20216;-58
2024/02/15 03:47:55;;;;;;;23.90;17.33;;;5.40;97.50;;;;;;5053589;28;20244;-58
2024/02/15 03:50:23;;;;;;;26.23;18.60;;;5.40;97.40;;;;;;5050856;28;20217;-58
2024/02/15 03:52:51;;;;;;;21.83;16.30;;;5.40;97.40;;;;;;5049471;28;20202;-58
2024/02/15 03:55:18;;;;;;;22.57;15.27;;;5.40;97.40;;;;;;5053207;28;20408;-58
2024/02/15 03:57:46;;;;;;;27.93;16.40;;;5.40;97.40;;;;;;5051005;28;20585;-58
2024/02/15 04:00:20;;;;;;;23.17;15.87;;;5.40;97.50;;;;;;5052752;28;20203;-58
2024/02/15 04:02:48;;;;;;;23.80;16.13;;;5.40;97.70;;;;;;5053607;28;20720;-58
2024/02/15 04:05:18;;;;;;;22.90;16.20;;;5.40;97.70;;;;;;5053131;28;20535;-58
2024/02/15 04:07:45;;;;;;;25.67;16.53;;;5.40;97.70;;;;;;5053726;28;20274;-58
2024/02/15 04:10:13;;;;;;;25.27;15.53;;;5.40;97.80;;;;;;5052718;28;20527;-58
2024/02/15 04:12:43;;;;;;;24.83;16.10;;;5.40;97.80;;;;;;5052060;28;20627;-58
2024/02/15 04:15:15;;;;;;;25.13;15.53;;;5.40;97.80;;;;;;5047788;28;20193;-58
2024/02/15 04:17:44;;;;;;;24.90;16.30;;;5.40;97.80;;;;;;5050911;28;20203;-58
2024/02/15 04:20:11;;;;;;;22.90;15.30;;;5.40;97.90;;;;;;5046549;28;20529;-58
2024/02/15 04:22:42;;;;;;;25.60;15.87;;;5.40;97.90;;;;;;5048951;28;20684;-58
2024/02/15 04:25:10;;;;;;;25.57;14.90;;;5.40;98.00;;;;;;5050528;28;20202;-58
2024/02/15 04:27:38;;;;;;;21.83;14.73;;;5.40;98.00;;;;;;5053393;28;20224;-58
2024/02/15 04:30:07;;;;;;;20.33;14.80;;;5.40;98.10;;;;;;5050569;28;20214;-60
2024/02/15 04:32:36;;;;;;;26.53;15.33;;;5.50;98.10;;;;;;5051059;28;20238;-59
2024/02/15 04:35:05;;;;;;;25.17;15.20;;;5.50;98.10;;;;;;5048421;28;20664;-59
2024/02/15 04:37:37;;;;;;;24.33;17.07;;;5.50;98.10;;;;;;5050622;28;20206;-58
2024/02/15 04:40:09;;;;;;;23.07;15.03;;;5.50;98.00;;;;;;5050795;28;20523;-59
2024/02/15 04:42:44;;;;;;;19.37;13.93;;;5.50;98.00;;;;;;5043636;28;20427;-60
2024/02/15 04:45:14;;;;;;;19.23;13.10;;;5.50;98.00;;;;;;5049980;28;20206;-59
2024/02/15 04:47:45;;;;;;;21.97;14.97;;;5.50;98.10;;;;;;5049410;28;20206;-59
2024/02/15 04:50:15;;;;;;;23.73;15.37;;;5.60;98.10;;;;;;5052807;28;20543;-59
2024/02/15 04:52:45;;;;;;;21.53;15.10;;;5.50;98.10;;;;;;5053586;28;20191;-59
2024/02/15 04:55:12;;;;;;;22.43;15.60;;;5.60;98.20;;;;;;5053630;28;20209;-59
2024/02/15 04:57:40;;;;;;;19.63;14.47;;;5.60;98.20;;;;;;5053316;28;20277;-59
2024/02/15 05:00:09;;;;;;;19.40;13.33;;;5.60;98.20;;;;;;5051014;28;20267;-59
2024/02/15 05:02:40;;;;;;;21.60;14.90;;;5.60;98.10;;;;;;5052295;28;20202;-59
2024/02/15 05:05:12;;;;;;;26.10;15.27;;;5.60;98.00;;;;;;5035958;28;20211;-59
2024/02/15 05:07:41;;;;;;;23.07;15.50;;;5.60;98.00;;;;;;5051956;28;20792;-59
2024/02/15 05:10:09;;;;;;;23.43;16.07;;;5.60;98.10;;;;;;5042787;28;20758;-59
2024/02/15 05:12:40;;;;;;;27.07;15.67;;;5.60;98.10;;;;;;5049548;28;20199;-59
2024/02/15 05:15:12;;;;;;;23.90;14.33;;;5.50;98.10;;;;;;5059338;28;20242;-59
2024/02/15 05:17:40;;;;;;;20.47;14.50;;;5.50;98.10;;;;;;5046856;28;20194;-59
2024/02/15 05:20:13;;;;;;;22.93;14.70;;;5.50;98.10;;;;;;5051008;28;20211;-59
2024/02/15 05:22:45;;;;;;;20.80;13.13;;;5.50;98.10;;;;;;5049002;28;20205;-59
2024/02/15 05:25:22;;;;;;;21.20;13.03;;;5.40;98.10;;;;;;5035198;28;20202;-59
2024/02/15 05:27:56;;;;;;;20.97;12.60;;;5.40;98.10;;;;;;5049361;28;20197;-59
2024/02/15 05:30:25;;;;;;;18.80;12.37;;;5.40;98.00;;;;;;5048004;28;20204;-59
2024/02/15 05:32:53;;;;;;;23.83;13.50;;;5.30;98.00;;;;;;5051300;28;20356;-58
2024/02/15 05:35:22;;;;;;;19.20;13.70;;;5.30;98.00;;;;;;5051007;28;20260;-59
2024/02/15 05:37:52;;;;;;;19.03;12.77;;;5.30;98.00;;;;;;5050221;28;20598;-59
2024/02/15 05:40:20;;;;;;;19.07;12.80;;;5.30;97.90;;;;;;5052586;28;20195;-59
2024/02/15 05:42:49;;;;;;;23.40;13.67;;;5.30;98.00;;;;;;5051338;28;20296;-59
2024/02/15 05:45:26;;;;;;;22.43;14.43;;;5.30;98.00;;;;;;5048890;28;20204;-59
2024/02/15 05:47:54;;;;;;;20.40;13.87;;;5.20;98.00;;;;;;5045473;28;20206;-59
2024/02/15 05:50:23;;;;;;;20.23;12.33;;;5.20;98.10;;;;;;5049429;28;20647;-59
2024/02/15 05:52:54;;;;;;;20.63;13.47;;;5.20;98.10;;;;;;5052178;28;20202;-59
2024/02/15 05:55:22;;;;;;;23.17;13.40;;;5.20;98.10;;;;;;5050171;28;20202;-59
2024/02/15 05:57:50;;;;;;;30.87;15.63;;;5.20;98.10;;;;;;5051900;28;20720;-59
2024/02/15 06:00:18;;;;;;;21.13;15.00;;;5.20;98.10;;;;;;5056162;28;20191;-60
2024/02/15 06:02:49;;;;;;;19.83;13.33;;;5.20;98.10;;;;;;5047889;28;20557;-59
2024/02/15 06:05:18;;;;;;;22.17;13.73;;;5.20;98.20;;;;;;5046428;28;20311;-59
2024/02/15 06:07:46;;;;;;;24.73;14.37;;;5.20;98.20;;;;;;5034420;28;20602;-59
2024/02/15 06:10:15;;;;;;;20.30;12.70;;;5.20;98.20;;;;;;5035479;28;20642;-59
2024/02/15 06:12:43;;;;;;;23.70;13.70;;;5.10;98.10;;;;;;5051594;28;20645;-59
2024/02/15 06:15:17;;;;;;;19.60;13.63;;;5.20;98.10;;;;;;5051131;28;20197;-59
2024/02/15 06:17:46;;;;;;;23.30;14.20;;;5.20;98.40;;;;;;5050674;28;20218;-59
2024/02/15 06:20:17;;;;;;;23.00;14.47;;;5.20;98.10;;;;;;5052892;28;20719;-59
2024/02/15 06:22:46;;;;;;;21.40;15.13;;;5.20;98.20;;;;;;5054360;28;20547;-59
2024/02/15 06:25:15;;;;;;;23.37;15.47;;;5.20;98.20;;;;;;5053145;28;20202;-59
2024/02/15 06:27:43;;;;;;;25.70;15.23;;;5.20;98.30;;;;;;5054756;28;20199;-59
2024/02/15 06:41:19;;;;;;;18.30;13.50;;;5.30;98.40;;;;;;5048534;28;20667;-59
2024/02/15 06:43:50;;;;;;;23.33;14.30;;;5.30;98.40;;;;;;5037267;28;20636;-59
2024/02/15 06:46:19;;;;;;;25.43;15.60;;;5.30;98.50;;;;;;5044312;28;20736;-59
2024/02/15 06:48:47;;;;;;;17.20;12.63;;;5.40;98.50;;;;;;5053317;28;20213;-59
2024/02/15 06:51:15;;;;;;;21.73;12.23;;;5.40;98.50;;;;;;5051909;28;20543;-59
2024/02/15 06:53:43;;;;;;;19.87;12.03;;;5.50;98.50;;;;;;5049818;28;20195;-59
2024/02/15 06:56:11;;;;;;;17.77;12.07;;;5.50;98.40;;;;;;5033225;28;20224;-59
2024/02/15 06:58:42;;;;;;;17.83;11.60;;;5.60;98.40;;;;;;5053724;28;20210;-59
2024/02/15 07:01:13;;;;;;;16.43;11.37;;;5.60;98.20;;;;;;5055431;28;20229;-59
2024/02/15 07:03:40;;;;;;;19.00;13.17;;;5.70;98.10;;;;;;5054166;28;20200;-59
2024/02/15 07:06:08;;;;;;;22.27;12.97;;;5.70;98.00;;;;;;5054724;28;20212;-59
2024/02/15 07:08:35;;;;;;;22.90;13.73;;;5.80;97.70;;;;;;5053641;28;20199;-59
2024/02/15 07:11:03;;;;;;;17.97;11.53;;;5.80;97.70;;;;;;5054025;28;20230;-59
2024/02/15 07:13:31;;;;;;;17.37;11.77;;;5.90;97.80;;;;;;5053801;28;20210;-59
2024/02/15 07:15:59;;;;;;;21.70;14.93;;;6.00;97.70;;;;;;5054342;28;20198;-59
2024/02/15 07:18:27;;;;;;;23.03;14.17;;;6.20;97.50;;;;;;5054674;28;20202;-59
2024/02/15 07:20:59;;;;;;;18.53;13.90;;;6.40;97.40;;;;;;5053962;28;20225;-59
2024/02/15 07:23:27;;;;;;;19.97;14.10;;;6.50;97.20;;;;;;5049880;28;20210;-59
2024/02/15 07:25:55;;;;;;;22.20;15.33;;;6.60;97.10;;;;;;5051596;28;20597;-59
2024/02/15 07:28:22;;;;;;;25.57;15.90;;;6.70;96.90;;;;;;5050833;28;20605;-60
2024/02/15 07:30:54;;;;;;;25.47;16.60;;;6.90;96.60;;;;;;5050450;28;20223;-59
2024/02/15 07:33:23;;;;;;;24.07;15.20;;;7.00;96.60;;;;;;5050265;28;20262;-59
2024/02/15 07:35:51;;;;;;;20.97;14.27;;;7.10;96.60;;;;;;5052036;28;20226;-59
2024/02/15 07:38:22;;;;;;;29.60;16.83;;;7.30;96.60;;;;;;5036235;28;20203;-59
2024/02/15 07:40:50;;;;;;;26.00;15.67;;;7.50;96.60;;;;;;5050852;28;20676;-59
2024/02/15 07:43:18;;;;;;;25.83;17.80;;;7.80;96.50;;;;;;5048460;28;20266;-59
2024/02/15 07:45:47;;;;;;;29.43;17.87;;;8.10;96.20;;;;;;5051160;28;20202;-59
2024/02/15 07:48:15;;;;;;;29.07;17.33;;;8.40;95.80;;;;;;5036523;28;20224;-59
2024/02/15 07:50:43;;;;;;;27.57;17.23;;;8.70;95.50;;;;;;5032505;28;20223;-60
2024/02/15 07:53:11;;;;;;;25.80;18.03;;;9.00;95.10;;;;;;5051902;28;20207;-59
2024/02/15 07:55:41;;;;;;;25.03;18.03;;;9.20;94.70;;;;;;5036864;28;20260;-59
2024/02/15 07:58:09;;;;;;;28.17;18.40;;;9.40;94.50;;;;;;5053073;28;20264;-59
2024/02/15 08:00:38;;;;;;;28.40;19.23;;;9.50;94.40;;;;;;5054363;28;20199;-60
2024/02/15 08:03:07;;;;;;;28.33;19.77;;;9.50;94.40;;;;;;5052114;28;20211;-59
2024/02/15 08:05:36;;;;;;;28.07;18.30;;;9.60;94.40;;;;;;5063981;28;20534;-59
2024/02/15 08:08:05;;;;;;;29.20;18.73;;;9.60;94.50;;;;;;5036129;28;20293;-60
2024/02/15 08:10:33;;;;;;;26.87;19.20;;;9.50;94.50;;;;;;5052683;28;20291;-59
2024/02/15 08:13:01;;;;;;;27.30;18.33;;;9.60;94.60;;;;;;5052824;28;20199;-60
2024/02/15 08:15:29;;;;;;;31.33;19.57;;;9.50;94.70;;;;;;5051135;28;20191;-60
2024/02/15 08:17:56;;;;;;;25.63;19.07;;;9.50;94.80;;;;;;5034372;28;20194;-59
2024/02/15 08:20:25;;;;;;;29.60;18.43;;;9.60;94.90;;;;;;5048197;28;20214;-59
2024/02/15 08:22:53;;;;;;;28.40;19.47;;;9.50;94.80;;;;;;5052480;28;20202;-60
2024/02/15 08:25:21;;;;;;;29.17;19.33;;;9.60;94.90;;;;;;5034892;28;20276;-59
2024/02/15 08:27:51;;;;;;;29.03;19.67;;;9.70;94.90;;;;;;5048327;28;20215;-59
2024/02/15 08:30:19;;;;;;;30.57;20.73;;;9.80;94.90;;;;;;5048102;28;20217;-60
2024/02/15 08:32:53;;;;;;;33.57;22.87;;;9.90;94.80;;;;;;5050775;28;20247;-59
2024/02/15 08:35:21;;;;;;;33.13;22.17;;;10.00;94.80;;;;;;5037014;28;20569;-59
2024/02/15 08:37:51;;;;;;;39.97;25.90;;;10.10;94.70;;;;;;5032182;28;20201;-59
2024/02/15 08:40:24;;;;;;;36.23;26.47;;;10.20;94.70;;;;;;5061188;28;20280;-59
2024/02/15 08:42:53;;;;;;;40.97;26.50;;;10.30;94.40;;;;;;5035546;28;20212;-59
2024/02/15 08:45:21;;;;;;;35.73;24.80;;;10.50;94.20;;;;;;5052512;28;20199;-59
2024/02/15 08:47:52;;;;;;;36.03;25.90;;;10.60;94.20;;;;;;5052112;28;20209;-59
2024/02/15 08:50:23;;;;;;;35.60;25.37;;;10.70;94.10;;;;;;5052319;28;20250;-60
2024/02/15 08:52:51;;;;;;;40.23;26.77;;;10.80;94.00;;;;;;5035887;28;20715;-59
2024/02/15 08:55:23;;;;;;;40.73;27.70;;;10.80;93.80;;;;;;5050200;28;20208;-59
2024/02/15 08:57:52;;;;;;;35.13;27.87;;;10.90;93.60;;;;;;5048704;28;20245;-60
2024/02/15 09:00:20;;;;;;;36.97;26.70;;;10.90;93.60;;;;;;5052847;28;20206;-59
2024/02/15 09:02:49;;;;;;;32.40;26.87;;;11.00;93.60;;;;;;5049634;28;20223;-59
2024/02/15 09:05:18;;;;;;;36.13;25.30;;;11.00;93.70;;;;;;5052270;28;20272;-59
2024/02/15 09:07:50;;;;;;;34.27;23.27;;;11.10;93.60;;;;;;5063372;28;20225;-59
2024/02/15 09:10:18;;;;;;;34.23;21.07;;;11.20;93.40;;;;;;5049658;28;20236;-59
2024/02/15 09:12:48;;;;;;;29.33;21.03;;;11.30;93.10;;;;;;5035757;28;20211;-60
2024/02/15 09:15:17;;;;;;;30.20;18.93;;;11.30;92.90;;;;;;5039011;28;20229;-59
2024/02/15 09:17:46;;;;;;;29.47;20.30;;;11.40;93.10;;;;;;5052352;28;20254;-60
2024/02/15 09:20:18;;;;;;;27.30;19.07;;;11.40;93.10;;;;;;5051248;28;21276;-60
2024/02/15 09:22:50;;;;;;;28.77;19.10;;;11.50;93.10;;;;;;5047918;28;20201;-60
2024/02/15 09:25:19;;;;;;;28.63;19.20;;;11.60;93.00;;;;;;5048621;28;20213;-59
2024/02/15 09:27:48;;;;;;;28.03;19.77;;;11.80;93.00;;;;;;5051783;28;20201;-59
2024/02/15 09:30:17;;;;;;;30.37;21.37;;;11.90;93.00;;;;;;5022591;28;20225;-60
2024/02/15 09:32:46;;;;;;;28.93;20.63;;;12.00;93.00;;;;;;5051528;28;20295;-60
2024/02/15 09:35:14;;;;;;;29.47;21.63;;;12.10;92.70;;;;;;5035286;28;20205;-60
2024/02/15 09:37:50;;;;;;;28.30;21.43;;;12.30;92.70;;;;;;5018894;28;20229;-59
2024/02/15 09:40:19;;;;;;;30.07;20.70;;;12.40;92.60;;;;;;5034914;28;20201;-60
2024/02/15 09:42:48;;;;;;;25.60;20.17;;;12.40;92.60;;;;;;5052187;28;20202;-59
2024/02/15 09:45:16;;;;;;;26.00;20.70;;;12.50;92.40;;;;;;5042832;28;20220;-60
2024/02/15 09:47:45;;;;;;;25.47;20.03;;;12.60;92.20;;;;;;5050483;28;20199;-60
2024/02/15 09:50:15;;;;;;;32.87;21.87;;;12.70;92.20;;;;;;5049828;28;20712;-60
2024/02/15 09:52:49;;;;;;;30.77;21.20;;;12.80;92.10;;;;;;5062102;28;20285;-59
2024/02/15 09:55:18;;;;;;;30.60;21.10;;;12.90;92.00;;;;;;5052442;28;20186;-60
2024/02/15 09:57:47;;;;;;;30.27;20.70;;;13.00;92.10;;;;;;5043481;28;20203;-60
2024/02/15 10:00:16;;;;;;;31.73;21.97;;;13.00;91.60;;;;;;5053130;28;20205;-59
2024/02/15 10:02:48;;;;;;;30.23;21.87;;;13.10;91.60;;;;;;5045703;28;20222;-59
2024/02/15 10:05:17;;;;;;;31.80;22.43;;;13.20;91.50;;;;;;5044713;28;20261;-59
2024/02/15 10:07:46;;;;;;;30.37;22.53;;;13.20;91.40;;;;;;5070540;28;20199;-60
2024/02/15 10:10:26;;;;;;;32.57;24.70;;;13.30;91.20;;;;;;5046914;28;20621;-59
2024/02/15 10:12:55;;;;;;;33.43;21.50;;;13.30;91.20;;;;;;5062180;28;20230;-60
2024/02/15 10:15:36;;;;;;;29.03;22.53;;;13.40;91.20;;;;;;5054758;28;20207;-60
2024/02/15 10:18:10;;;;;;;34.67;23.03;;;13.50;91.00;;;;;;5051599;28;20190;-60
2024/02/15 10:20:39;;;;;;;34.50;25.27;;;13.60;90.90;;;;;;5053250;28;20233;-59
2024/02/15 10:23:11;;;;;;;35.67;24.80;;;13.70;90.80;;;;;;5056044;28;20209;-60
2024/02/15 10:25:40;;;;;;;32.40;24.07;;;13.70;90.70;;;;;;5056054;28;20527;-60
2024/02/15 10:28:09;;;;;;;36.87;26.20;;;13.80;90.50;;;;;;5042106;28;20247;-60
2024/02/15 10:30:46;;;;;;;37.17;26.43;;;13.90;90.50;;;;;;5064773;28;20238;-58
2024/02/15 10:33:20;;;;;;;33.30;25.13;;;14.00;90.50;;;;;;5051668;28;20230;-59
2024/02/15 10:35:48;;;;;;;39.60;26.03;;;14.00;90.30;;;;;;5049002;28;20213;-59
2024/02/15 10:38:16;;;;;;;36.83;27.57;;;14.10;90.30;;;;;;5051156;28;20202;-59
2024/02/15 10:40:46;;;;;;;40.83;28.47;;;14.20;90.20;;;;;;5052634;28;20206;-61
2024/02/15 10:43:17;;;;;;;40.60;27.23;;;14.30;90.00;;;;;;5053701;28;20285;-59
2024/02/15 10:45:45;;;;;;;36.60;28.03;;;14.30;90.00;;;;;;5054875;28;20233;-59
2024/02/15 10:48:13;;;;;;;39.47;29.40;;;14.30;89.30;;;;;;5054964;28;20206;-59
2024/02/15 10:50:41;;;;;;;40.10;28.83;;;14.30;89.10;;;;;;5047210;28;20666;-59
2024/02/15 10:53:26;;;;;;;41.00;29.33;;;14.30;88.90;;;;;;5052433;28;20543;-59
2024/02/15 10:56:00;;;;;;;42.53;30.27;;;14.30;89.00;;;;;;5052354;28;20540;-60
2024/02/15 10:58:38;;;;;;;47.93;32.70;;;14.40;89.20;;;;;;5049832;28;20621;-59
2024/02/15 11:01:08;;;;;;;43.93;33.63;;;14.40;89.20;;;;;;5053351;28;20226;-59
2024/02/15 11:03:41;;;;;;;45.33;34.43;;;14.50;89.10;;;;;;5054019;28;20198;-59
2024/02/15 11:06:10;;;;;;;47.07;35.93;;;14.60;88.50;;;;;;5054053;28;20214;-60
2024/02/15 11:08:39;;;;;;;46.23;34.23;;;14.70;88.70;;;;;;5053643;28;20206;-59
2024/02/15 11:11:07;;;;;;;45.23;33.47;;;14.80;88.40;;;;;;5053888;28;20225;-59
2024/02/15 11:13:35;;;;;;;45.27;34.07;;;14.90;88.20;;;;;;5033727;28;20222;-59
2024/02/15 11:16:03;;;;;;;52.27;34.90;;;15.00;87.30;;;;;;5035635;28;20217;-59
2024/02/15 11:18:45;;;;;;;49.77;33.30;;;15.00;86.40;;;;;;5044331;28;20212;-58
2024/02/15 11:21:15;;;;;;;44.50;32.37;;;14.90;86.60;;;;;;5035970;28;20290;-58
2024/02/15 11:23:44;;;;;;;45.97;34.43;;;14.90;86.80;;;;;;5047815;28;20230;-60
2024/02/15 11:26:47;;;;;;;48.67;35.03;;;14.90;87.30;;;;;;5053576;28;20205;-59
2024/02/15 11:29:54;;;;;;;50.27;34.47;;;14.90;87.50;;;;;;5050793;28;20854;-59
2024/02/15 11:32:43;;;;;;;48.13;33.30;;;15.10;87.30;;;;;;5050545;28;20224;-59
2024/02/15 11:35:14;;;;;;;51.47;35.73;;;15.20;87.00;;;;;;5048478;28;20217;-58
2024/02/15 11:37:49;;;;;;;48.73;33.70;;;15.30;86.10;;;;;;5043585;28;20599;-58
2024/02/15 11:40:27;;;;;;;51.77;35.07;;;15.30;86.10;;;;;;5052169;28;20200;-58
2024/02/15 11:42:57;;;;;;;49.47;34.03;;;15.50;86.20;;;;;;5051683;28;20663;-59
2024/02/15 11:45:26;;;;;;;45.93;35.30;;;15.60;86.30;;;;;;5053512;28;20202;-59
2024/02/15 11:47:55;;;;;;;47.93;35.10;;;15.70;86.30;;;;;;5053034;28;20274;-61
2024/02/15 11:50:23;;;;;;;48.70;33.43;;;15.90;85.90;;;;;;5033124;28;20625;-59
2024/02/15 11:52:52;;;;;;;47.27;35.27;;;16.00;84.70;;;;;;5035977;28;20225;-59
2024/02/15 11:55:23;;;;;;;50.00;33.43;;;16.00;84.50;;;;;;5052392;28;20206;-58
2024/02/15 11:58:28;;;;;;;49.73;34.83;;;16.10;84.30;;;;;;5053559;28;20199;-58
2024/02/15 12:20:37;;;;;;;48.47;32.70;;;16.30;81.00;;;;;;5051710;28;20282;-59
2024/02/15 12:23:06;;;;;;;46.10;32.37;;;16.30;80.70;;;;;;5052332;28;20195;-59
2024/02/15 12:25:35;;;;;;;47.07;31.97;;;16.30;81.00;;;;;;5045224;28;20211;-59
2024/02/15 12:28:04;;;;;;;43.30;31.43;;;16.40;80.50;;;;;;5052848;28;20209;-58
2024/02/15 12:30:40;;;;;;;51.10;35.47;;;16.40;80.00;;;;;;5052350;28;20230;-59
2024/02/15 12:33:12;;;;;;;48.30;35.53;;;16.40;80.10;;;;;;5051375;28;20229;-59
2024/02/15 12:35:41;;;;;;;49.93;37.30;;;16.40;80.50;;;;;;5052686;28;20279;-59
2024/02/15 12:38:15;;;;;;;52.73;36.93;;;16.40;80.30;;;;;;5052554;28;20222;-58
2024/02/15 12:40:44;;;;;;;51.00;36.70;;;16.40;80.70;;;;;;5038328;28;20531;-58
2024/02/15 12:43:15;;;;;;;53.70;36.80;;;16.40;81.10;;;;;;5048336;28;20195;-59
2024/02/15 12:45:43;;;;;;;49.73;37.13;;;16.50;81.30;;;;;;5049735;28;20281;-59
2024/02/15 12:48:11;;;;;;;51.23;35.63;;;16.50;81.30;;;;;;5046947;28;20211;-59
2024/02/15 12:50:39;;;;;;;52.63;37.17;;;16.50;81.20;;;;;;5048232;28;20234;-59
2024/02/15 12:53:08;;;;;;;51.57;36.80;;;16.50;80.80;;;;;;5030045;28;20632;-58
2024/02/15 12:55:37;;;;;;;53.00;35.93;;;16.50;80.90;;;;;;5051059;28;20201;-59
2024/02/15 12:58:10;;;;;;;55.47;37.43;;;16.60;80.60;;;;;;5052526;28;20893;-59
2024/02/15 13:00:39;;;;;;;55.63;35.90;;;16.60;80.00;;;;;;5050044;28;20200;-60
2024/02/15 13:03:10;;;;;;;52.70;37.17;;;16.60;80.20;;;;;;5050776;28;20206;-59
2024/02/15 13:05:39;;;;;;;62.20;39.63;;;16.60;80.00;;;;;;5052277;28;20626;-59
2024/02/15 13:08:13;;;;;;;49.90;37.37;;;16.60;79.10;;;;;;5052303;28;20199;-58
2024/02/15 13:10:42;;;;;;;57.57;38.57;;;16.60;78.10;;;;;;5050459;28;20246;-58
2024/02/15 13:13:11;;;;;;;53.40;37.63;;;16.50;78.70;;;;;;5051144;28;20621;-59
2024/02/15 13:15:40;;;;;;;53.87;38.90;;;16.50;79.20;;;;;;5050431;28;20195;-58